Buoy 47557

sailwx.info

Track history (hours):
 
Tides and Currents Weather Stations Pressure Air Temp Water Temp Dewpoint Dewpoint Depression Visibility Wind Speed Wind Dir Waves Ship Positions

Drifting buoy 47557

Last reported at 2017-Mar-25 03:00 UTC. Time now 2017-Mar-25 04:00 UTC.
Position N 50°16' W 017°31'.

Barometer 1030.9 mb
Water temperature 11.5 ° C

Date/timePositionNaut miles runAvg speedWind from/ knotsBaromVisibWave heightAir tempDewpointWater temp
2017-Mar-25 03:00N 50°16' W 017°31'1 0.6 1030.9 11.5
2017-Mar-25 02:00N 50°15' W 017°31'1 0.7 1031.0 11.5
2017-Mar-25 01:00N 50°14' W 017°30'0 0.0 1031.2 11.5
2017-Mar-25 00:00N 50°14' W 017°30'1 0.5 1032.2 11.6
2017-Mar-24 22:00N 50°14' W 017°29'0 0.0 1031.5 11.6
2017-Mar-24 21:00N 50°14' W 017°29'0 0.4 1031.8 11.6
2017-Mar-24 20:00N 50°14' W 017°28'1 0.6 1031.6 11.6
2017-Mar-24 19:00N 50°13' W 017°28'0 0.0 1031.1 11.7
2017-Mar-24 18:00N 50°13' W 017°28'1 0.6 1030.8 11.8
2017-Mar-24 17:00N 50°13' W 017°28'1 0.4 1030.8 11.9
2017-Mar-24 15:00N 50°12' W 017°28'1 0.7 1031.1 11.6
2017-Mar-24 14:00N 50°11' W 017°27'1 0.6 1031.3 11.7
2017-Mar-24 13:00N 50°11' W 017°27'0 0.0 1031.7 11.6
2017-Mar-24 12:00N 50°11' W 017°27'1 0.6 1031.6 11.5
2017-Mar-24 11:00N 50°10' W 017°27'0 0.0 1031.9 11.4
2017-Mar-24 10:00N 50°10' W 017°27'1 0.6 1031.5 11.4
2017-Mar-24 09:00N 50°10' W 017°27'1 0.4 1031.8 11.4
2017-Mar-24 06:00N 50°08' W 017°27'1 0.6 1030.2 11.4
2017-Mar-24 05:00N 50°08' W 017°27'1 0.6 1030.3 11.4
2017-Mar-24 04:00N 50°07' W 017°27'1 0.7 1030.5 11.4
2017-Mar-24 03:00N 50°07' W 017°26'2 0.6 1030.5 11.4
2017-Mar-24 00:00N 50°05' W 017°26'1 0.6 1030.7 11.4
2017-Mar-23 23:00N 50°04' W 017°26'1 0.6 1030.9 11.4
2017-Mar-23 22:00N 50°04' W 017°26'1 0.7 1031.2 11.4
2017-Mar-23 21:00N 50°03' W 017°25'0 0.0 1030.9 11.4
2017-Mar-23 20:00N 50°03' W 017°25'1 0.6 1030.4 11.4
2017-Mar-23 18:00N 50°02' W 017°25'1 0.7 1029.5 11.4
2017-Mar-23 17:00N 50°01' W 017°24'1 0.6 1029.1 11.4
2017-Mar-23 16:00N 50°01' W 017°24'1 0.7 1028.8 11.4
2017-Mar-23 15:00N 50°00' W 017°23'0 0.0 1029.0 11.4
2017-Mar-23 14:00N 50°00' W 017°23'2 1.0 1028.9 11.4
2017-Mar-23 12:00N 49°58' W 017°22'1 0.5 1029.1 11.4
2017-Mar-23 10:00N 49°58' W 017°21'1 0.6 1028.6 11.4
2017-Mar-23 09:00N 49°57' W 017°21'1 0.7 1028.6 11.3
2017-Mar-23 08:00N 49°56' W 017°20'1 0.4 1028.2 11.3
2017-Mar-23 06:00N 49°56' W 017°20'0 0.4 1027.3 11.3
2017-Mar-23 05:00N 49°56' W 017°19'1 0.7 1027.1 11.3
2017-Mar-23 04:00N 49°55' W 017°19'1 0.7 1026.7 11.4
2017-Mar-23 03:00N 49°55' W 017°18'1 0.7 1026.9 11.3
2017-Mar-23 02:00N 49°54' W 017°17'1 1.3 1026.8 11.3
2017-Mar-23 01:00N 49°53' W 017°17'0 0.0 1026.6 11.3
2017-Mar-23 00:00N 49°53' W 017°17'1 0.7 1026.6 11.3
2017-Mar-22 23:00N 49°52' W 017°16'0 0.4 1026.5 11.3
2017-Mar-22 22:00N 49°52' W 017°16'1 1.0 1026.3 11.4
2017-Mar-22 21:00N 49°52' W 017°14'2 0.7 1025.7 11.3
2017-Mar-22 18:00N 49°50' W 017°12'0 0.4 1023.5 11.4
2017-Mar-22 17:00N 49°50' W 017°11'0 0.4 1022.7 11.4
2017-Mar-22 16:00N 49°50' W 017°11'1 0.7 1022.3 11.4
2017-Mar-22 15:00N 49°50' W 017°10'1 0.8 1021.9 11.4
2017-Mar-22 14:00N 49°50' W 017°09'0 0.4 1021.6 11.4
2017-Mar-22 13:00N 49°50' W 017°08'1 1.0 1020.9 11.4
2017-Mar-22 12:00N 49°49' W 017°07'0 0.0 1020.4 11.3
2017-Mar-22 11:00N 49°49' W 017°07'2 0.8 1019.2 11.3
2017-Mar-22 09:00N 49°48' W 017°05'1 0.4 1016.8 11.3
2017-Mar-22 07:00N 49°48' W 017°04'0 0.4 1015.1 11.3
2017-Mar-22 06:00N 49°48' W 017°04'0 0.4 1014.5 11.3
2017-Mar-22 05:00N 49°48' W 017°03'2 1.0 1013.7 11.3
2017-Mar-22 03:00N 49°48' W 017°00'0 0.0 1012.3 11.3
2017-Mar-22 02:00N 49°48' W 017°00'1 0.8 1011.7 11.3
2017-Mar-22 01:00N 49°48' W 016°59'0 0.4 1011.6 11.3
2017-Mar-22 00:00N 49°48' W 016°58'0 0.4 1010.0 11.3
2017-Mar-21 23:00N 49°48' W 016°58'0 0.4 1008.8 11.3
2017-Mar-21 22:00N 49°48' W 016°57'1 0.8 1008.5 11.3
2017-Mar-21 21:00N 49°48' W 016°56'1 1.0 1006.5 11.3
2017-Mar-21 20:00N 49°49' W 016°55'0 0.4 1005.7 11.3
2017-Mar-21 19:00N 49°49' W 016°54'1 0.8 1004.3 11.4
2017-Mar-21 18:00N 49°49' W 016°53'2 0.8 1003.2 11.4
2017-Mar-21 15:00N 49°49' W 016°49'1 0.8 1005.7 11.4
2017-Mar-21 14:00N 49°49' W 016°48'1 0.8 1007.0 11.4
2017-Mar-21 13:00N 49°49' W 016°47'1 0.7 1007.3 11.4
2017-Mar-21 12:00N 49°50' W 016°46'1 0.8 1007.4 11.4
2017-Mar-21 11:00N 49°50' W 016°45'1 0.8 1007.3 11.4
2017-Mar-21 10:00N 49°50' W 016°44'1 1.3 1008.1 11.4
2017-Mar-21 09:00N 49°50' W 016°42'0 0.0 1008.0 11.4
2017-Mar-21 08:00N 49°50' W 016°42'2 1.0 1008.6 11.4
2017-Mar-21 06:00N 49°52' W 016°40'0 0.0 1009.7 11.4
2017-Mar-21 05:00N 49°52' W 016°40'1 0.7 1010.8 11.4
2017-Mar-21 04:00N 49°52' W 016°39'1 0.7 1012.0 11.4
2017-Mar-21 03:00N 49°53' W 016°38'1 0.5 1013.1 11.4
2017-Mar-21 01:00N 49°53' W 016°37'1 0.7 1014.4 11.4
2017-Mar-21 00:00N 49°54' W 016°37'0 0.4 1015.2 11.4
2017-Mar-20 23:00N 49°54' W 016°36'1 1.0 1015.6 11.4
2017-Mar-20 22:00N 49°55' W 016°35'1 0.7 1015.8 11.4
2017-Mar-20 21:00N 49°55' W 016°34'1 1.0 1015.7 11.4
2017-Mar-20 20:00N 49°56' W 016°33'5 2.5 1015.6 11.4
2017-Mar-20 18:00N 50°01' W 016°31'0 0.0 1014.8 11.4
2017-Mar-20 17:00N 50°01' W 016°31'0 0.0 1014.4 11.4
2017-Mar-20 15:00N 50°01' W 016°31'2 0.8 1013.0 11.5
2017-Mar-20 12:00N 50°03' W 016°31'2 0.8 1010.9 11.5
2017-Mar-20 09:00N 50°05' W 016°31'1 0.7 1008.6 11.5
2017-Mar-20 08:00N 50°06' W 016°31'1 0.6 1007.6 11.5
2017-Mar-20 07:00N 50°07' W 016°31'1 1.3 1007.2 11.5
2017-Mar-20 06:00N 50°08' W 016°30'1 0.6 1006.8 11.5
2017-Mar-20 05:00N 50°08' W 016°30'1 1.2 1006.2 11.5
2017-Mar-20 04:00N 50°10' W 016°30'1 1.2 1006.1 11.5
2017-Mar-20 03:00N 50°11' W 016°30'2 1.2 1006.1 11.5
2017-Mar-20 01:00N 50°13' W 016°31'1 0.6 1006.3 11.5
2017-Mar-20 00:00N 50°14' W 016°31'1 1.3 1006.0 11.5
2017-Mar-19 23:00N 50°15' W 016°31'1 0.6 1006.6 11.5
2017-Mar-19 21:00N 50°16' W 016°32'1 1.3 1006.7 11.5
2017-Mar-19 20:00N 50°17' W 016°32'2 1.0 1006.9 11.5
2017-Mar-19 18:00N 50°19' W 016°34'1 0.7 1007.2 11.5
2017-Mar-19 17:00N 50°20' W 016°34'1 1.4 1007.6 11.5
2017-Mar-19 16:00N 50°21' W 016°35'1 0.7 1007.8 11.5
2017-Mar-19 15:00N 50°22' W 016°36'1 0.7 1008.7 11.5
2017-Mar-19 14:00N 50°22' W 016°37'1 1.0 1009.3 11.5
2017-Mar-19 13:00N 50°23' W 016°38'1 0.7 1009.9 11.5
2017-Mar-19 12:00N 50°23' W 016°38'1 0.7 1010.3 11.5
2017-Mar-19 11:00N 50°24' W 016°39'1 0.7 1010.3 11.5
2017-Mar-19 10:00N 50°25' W 016°40'1 1.0 1010.0 11.5
2017-Mar-19 09:00N 50°25' W 016°41'1 0.7 1010.0 11.5
2017-Mar-19 08:00N 50°26' W 016°41'1 1.0 1010.1 11.5
2017-Mar-19 07:00N 50°26' W 016°43'1 1.0 1009.7 11.5
2017-Mar-19 06:00N 50°27' W 016°44'2 1.0 1010.0 11.5
2017-Mar-19 04:00N 50°28' W 016°47'1 0.8 1010.6 11.5
2017-Mar-19 03:00N 50°28' W 016°48'2 0.8 1011.4 11.5
2017-Mar-19 01:00N 50°28' W 016°50'1 0.8 1012.6 11.5
2017-Mar-19 00:00N 50°28' W 016°52'0 0.4 1013.1 11.5
2017-Mar-18 23:00N 50°28' W 016°52'2 0.8 1013.6 11.5
2017-Mar-18 21:00N 50°29' W 016°55'1 0.8 1014.5 11.5
2017-Mar-18 20:00N 50°29' W 016°56'1 0.8 1014.7 11.5
2017-Mar-18 19:00N 50°29' W 016°57'1 0.8 1014.8 11.5
2017-Mar-18 18:00N 50°29' W 016°58'1 1.0 1015.1 11.5
2017-Mar-18 17:00N 50°28' W 016°59'2 1.0 1015.7 11.5
2017-Mar-18 15:00N 50°28' W 017°02'1 1.0 1017.2 11.5
2017-Mar-18 14:00N 50°28' W 017°04'1 0.6 1017.8 11.5
2017-Mar-18 12:00N 50°27' W 017°05'1 0.6 1018.5 11.5
2017-Mar-18 10:00N 50°26' W 017°07'1 1.0 1018.7 11.5
2017-Mar-18 09:00N 50°26' W 017°08'1 0.6 1018.9 11.4
2017-Mar-18 07:00N 50°25' W 017°10'1 0.8 1019.5 11.4
2017-Mar-18 06:00N 50°25' W 017°11'3 0.9 1019.4 11.4
2017-Mar-18 03:00N 50°23' W 017°14'2 1.0 1020.5 11.4
2017-Mar-18 01:00N 50°22' W 017°17'1 0.7 1021.2 11.4
2017-Mar-18 00:00N 50°22' W 017°17'1 0.6 1021.2 11.4
2017-Mar-17 22:00N 50°20' W 017°18'1 0.7 1022.0 11.5
2017-Mar-17 21:00N 50°20' W 017°19'1 0.7 1022.6 11.5
2017-Mar-17 20:00N 50°19' W 017°19'1 0.6 1022.6 11.5
2017-Mar-17 18:00N 50°18' W 017°20'1 0.7 1022.8 11.5
2017-Mar-17 17:00N 50°17' W 017°20'1 0.7 1023.3 11.5
2017-Mar-17 16:00N 50°17' W 017°21'1 0.7 1023.8 11.5
2017-Mar-17 15:00N 50°16' W 017°22'2 0.7 1024.0 11.5
2017-Mar-17 12:00N 50°14' W 017°23'1 0.4 1025.5 11.5
2017-Mar-17 10:00N 50°14' W 017°23'1 1.2 1025.4 11.4
2017-Mar-17 09:00N 50°13' W 017°23'1 0.7 1025.5 11.4
2017-Mar-17 08:00N 50°12' W 017°24'1 0.6 1025.7 11.4
2017-Mar-17 07:00N 50°11' W 017°24'1 1.2 1025.9 11.4
2017-Mar-17 06:00N 50°10' W 017°24'1 0.6 1026.5 11.4
2017-Mar-17 04:00N 50°09' W 017°23'1 0.6 1027.5 11.4
2017-Mar-17 03:00N 50°08' W 017°23'1 0.6 1028.8 11.5
2017-Mar-17 01:00N 50°07' W 017°23'1 0.6 1029.9 11.4
2017-Mar-17 00:00N 50°07' W 017°23'1 0.7 1030.6 11.4
2017-Mar-16 23:00N 50°06' W 017°22'2 1.0 1030.7 11.4
2017-Mar-16 21:00N 50°04' W 017°21'2 0.7 1031.0 11.5
2017-Mar-16 18:00N 50°02' W 017°20'1 0.7 1030.4 11.5
2017-Mar-16 16:00N 50°01' W 017°19'1 0.7 1030.6 11.5
2017-Mar-16 15:00N 50°01' W 017°18'1 0.7 1030.8 11.5
2017-Mar-16 14:00N 50°00' W 017°17'0 0.4 1030.7 11.5
2017-Mar-16 13:00N 50°00' W 017°17'1 1.0 1030.9 11.5
2017-Mar-16 12:00N 49°59' W 017°16'1 0.7 1030.2 11.5
2017-Mar-16 11:00N 49°59' W 017°15'1 0.8 1029.8 11.5
2017-Mar-16 10:00N 49°59' W 017°14'1 0.7 1029.5 11.5
2017-Mar-16 09:00N 49°58' W 017°13'1 1.0 1028.6 11.5
2017-Mar-16 08:00N 49°58' W 017°12'1 1.0 1027.9 11.4
2017-Mar-16 07:00N 49°57' W 017°11'0 0.4 1026.7 11.5
2017-Mar-16 06:00N 49°57' W 017°10'1 1.0 1026.0 11.5
2017-Mar-16 05:00N 49°56' W 017°09'1 0.7 1025.0 11.5
2017-Mar-16 04:00N 49°56' W 017°08'0 0.4 1024.5 11.5
2017-Mar-16 03:00N 49°56' W 017°08'1 0.7 1024.5 11.5
2017-Mar-16 02:00N 49°55' W 017°07'0 0.4 1024.4 11.5
2017-Mar-16 01:00N 49°55' W 017°07'0 0.4 1024.6 11.5
2017-Mar-16 00:00N 49°55' W 017°06'1 0.7 1024.9 11.5
2017-Mar-15 23:00N 49°55' W 017°05'1 0.5 1024.7 11.5
2017-Mar-15 21:00N 49°54' W 017°04'1 1.0 1024.6 11.5
2017-Mar-15 20:00N 49°53' W 017°03'2 0.8 1024.2 11.5
2017-Mar-15 18:00N 49°52' W 017°01'0 0.4 1024.2 11.5
2017-Mar-15 17:00N 49°52' W 017°01'1 0.7 1024.6 11.5
2017-Mar-15 15:00N 49°52' W 016°59'1 0.6 1025.8 11.5
2017-Mar-15 14:00N 49°51' W 016°59'0 0.4 1026.6 11.5
2017-Mar-15 13:00N 49°51' W 016°58'0 0.4 1027.3 11.5
2017-Mar-15 12:00N 49°51' W 016°58'1 0.4 1027.6 11.5
2017-Mar-15 10:00N 49°50' W 016°57'0 0.4 1028.3 11.5
2017-Mar-15 09:00N 49°50' W 016°56'1 0.7 1028.9 11.5
2017-Mar-15 08:00N 49°50' W 016°56'0 0.4 1029.2 11.5
2017-Mar-15 07:00N 49°50' W 016°55'1 0.7 1029.0 11.5
2017-Mar-15 06:00N 49°49' W 016°55'1 0.7 1029.2 11.5
2017-Mar-15 04:00N 49°49' W 016°53'0 0.4 1030.4 11.5
2017-Mar-15 03:00N 49°49' W 016°52'   1031.0 11.5
Track history (hours):
 
Tides and Currents Weather Stations Pressure Air Temp Water Temp Dewpoint Dewpoint Depression Visibility Wind Speed Wind Dir Waves Ship Positions

Drifting buoy 47557

Last reported at 2017-Mar-25 03:00 UTC. Time now 2017-Mar-25 04:00 UTC.
Position N 50°16' W 017°31'.

Barometer 1030.9 mb
Water temperature 11.5 ° C

Date/timePositionNaut miles runAvg speedWind from/ knotsBaromVisibWave heightAir tempDewpointWater temp
2017-Mar-25 03:00N 50°16' W 017°31'1 0.6 1030.9 11.5
2017-Mar-25 02:00N 50°15' W 017°31'1 0.7 1031.0 11.5
2017-Mar-25 01:00N 50°14' W 017°30'0 0.0 1031.2 11.5
2017-Mar-25 00:00N 50°14' W 017°30'1 0.5 1032.2 11.6
2017-Mar-24 22:00N 50°14' W 017°29'0 0.0 1031.5 11.6
2017-Mar-24 21:00N 50°14' W 017°29'0 0.4 1031.8 11.6
2017-Mar-24 20:00N 50°14' W 017°28'1 0.6 1031.6 11.6
2017-Mar-24 19:00N 50°13' W 017°28'0 0.0 1031.1 11.7
2017-Mar-24 18:00N 50°13' W 017°28'1 0.6 1030.8 11.8
2017-Mar-24 17:00N 50°13' W 017°28'1 0.4 1030.8 11.9
2017-Mar-24 15:00N 50°12' W 017°28'1 0.7 1031.1 11.6
2017-Mar-24 14:00N 50°11' W 017°27'1 0.6 1031.3 11.7
2017-Mar-24 13:00N 50°11' W 017°27'0 0.0 1031.7 11.6
2017-Mar-24 12:00N 50°11' W 017°27'1 0.6 1031.6 11.5
2017-Mar-24 11:00N 50°10' W 017°27'0 0.0 1031.9 11.4
2017-Mar-24 10:00N 50°10' W 017°27'1 0.6 1031.5 11.4
2017-Mar-24 09:00N 50°10' W 017°27'1 0.4 1031.8 11.4
2017-Mar-24 06:00N 50°08' W 017°27'1 0.6 1030.2 11.4
2017-Mar-24 05:00N 50°08' W 017°27'1 0.6 1030.3 11.4
2017-Mar-24 04:00N 50°07' W 017°27'1 0.7 1030.5 11.4
2017-Mar-24 03:00N 50°07' W 017°26'2 0.6 1030.5 11.4
2017-Mar-24 00:00N 50°05' W 017°26'1 0.6 1030.7 11.4
2017-Mar-23 23:00N 50°04' W 017°26'1 0.6 1030.9 11.4
2017-Mar-23 22:00N 50°04' W 017°26'1 0.7 1031.2 11.4
2017-Mar-23 21:00N 50°03' W 017°25'0 0.0 1030.9 11.4
2017-Mar-23 20:00N 50°03' W 017°25'1 0.6 1030.4 11.4
2017-Mar-23 18:00N 50°02' W 017°25'1 0.7 1029.5 11.4
2017-Mar-23 17:00N 50°01' W 017°24'1 0.6 1029.1 11.4
2017-Mar-23 16:00N 50°01' W 017°24'1 0.7 1028.8 11.4
2017-Mar-23 15:00N 50°00' W 017°23'0 0.0 1029.0 11.4
2017-Mar-23 14:00N 50°00' W 017°23'2 1.0 1028.9 11.4
2017-Mar-23 12:00N 49°58' W 017°22'1 0.5 1029.1 11.4
2017-Mar-23 10:00N 49°58' W 017°21'1 0.6 1028.6 11.4
2017-Mar-23 09:00N 49°57' W 017°21'1 0.7 1028.6 11.3
2017-Mar-23 08:00N 49°56' W 017°20'1 0.4 1028.2 11.3
2017-Mar-23 06:00N 49°56' W 017°20'0 0.4 1027.3 11.3
2017-Mar-23 05:00N 49°56' W 017°19'1 0.7 1027.1 11.3
2017-Mar-23 04:00N 49°55' W 017°19'1 0.7 1026.7 11.4
2017-Mar-23 03:00N 49°55' W 017°18'1 0.7 1026.9 11.3
2017-Mar-23 02:00N 49°54' W 017°17'1 1.3 1026.8 11.3
2017-Mar-23 01:00N 49°53' W 017°17'0 0.0 1026.6 11.3
2017-Mar-23 00:00N 49°53' W 017°17'1 0.7 1026.6 11.3
2017-Mar-22 23:00N 49°52' W 017°16'0 0.4 1026.5 11.3
2017-Mar-22 22:00N 49°52' W 017°16'1 1.0 1026.3 11.4
2017-Mar-22 21:00N 49°52' W 017°14'2 0.7 1025.7 11.3
2017-Mar-22 18:00N 49°50' W 017°12'0 0.4 1023.5 11.4
2017-Mar-22 17:00N 49°50' W 017°11'0 0.4 1022.7 11.4
2017-Mar-22 16:00N 49°50' W 017°11'1 0.7 1022.3 11.4
2017-Mar-22 15:00N 49°50' W 017°10'1 0.8 1021.9 11.4
2017-Mar-22 14:00N 49°50' W 017°09'0 0.4 1021.6 11.4
2017-Mar-22 13:00N 49°50' W 017°08'1 1.0 1020.9 11.4
2017-Mar-22 12:00N 49°49' W 017°07'0 0.0 1020.4 11.3
2017-Mar-22 11:00N 49°49' W 017°07'2 0.8 1019.2 11.3
2017-Mar-22 09:00N 49°48' W 017°05'1 0.4 1016.8 11.3
2017-Mar-22 07:00N 49°48' W 017°04'0 0.4 1015.1 11.3
2017-Mar-22 06:00N 49°48' W 017°04'0 0.4 1014.5 11.3
2017-Mar-22 05:00N 49°48' W 017°03'2 1.0 1013.7 11.3
2017-Mar-22 03:00N 49°48' W 017°00'0 0.0 1012.3 11.3
2017-Mar-22 02:00N 49°48' W 017°00'1 0.8 1011.7 11.3
2017-Mar-22 01:00N 49°48' W 016°59'0 0.4 1011.6 11.3
2017-Mar-22 00:00N 49°48' W 016°58'0 0.4 1010.0 11.3
2017-Mar-21 23:00N 49°48' W 016°58'0 0.4 1008.8 11.3
2017-Mar-21 22:00N 49°48' W 016°57'1 0.8 1008.5 11.3
2017-Mar-21 21:00N 49°48' W 016°56'1 1.0 1006.5 11.3
2017-Mar-21 20:00N 49°49' W 016°55'0 0.4 1005.7 11.3
2017-Mar-21 19:00N 49°49' W 016°54'1 0.8 1004.3 11.4
2017-Mar-21 18:00N 49°49' W 016°53'2 0.8 1003.2 11.4
2017-Mar-21 15:00N 49°49' W 016°49'1 0.8 1005.7 11.4
2017-Mar-21 14:00N 49°49' W 016°48'1 0.8 1007.0 11.4
2017-Mar-21 13:00N 49°49' W 016°47'1 0.7 1007.3 11.4
2017-Mar-21 12:00N 49°50' W 016°46'1 0.8 1007.4 11.4
2017-Mar-21 11:00N 49°50' W 016°45'1 0.8 1007.3 11.4
2017-Mar-21 10:00N 49°50' W 016°44'1 1.3 1008.1 11.4
2017-Mar-21 09:00N 49°50' W 016°42'0 0.0 1008.0 11.4
2017-Mar-21 08:00N 49°50' W 016°42'2 1.0 1008.6 11.4
2017-Mar-21 06:00N 49°52' W 016°40'0 0.0 1009.7 11.4
2017-Mar-21 05:00N 49°52' W 016°40'1 0.7 1010.8 11.4
2017-Mar-21 04:00N 49°52' W 016°39'1 0.7 1012.0 11.4
2017-Mar-21 03:00N 49°53' W 016°38'1 0.5 1013.1 11.4
2017-Mar-21 01:00N 49°53' W 016°37'1 0.7 1014.4 11.4
2017-Mar-21 00:00N 49°54' W 016°37'0 0.4 1015.2 11.4
2017-Mar-20 23:00N 49°54' W 016°36'1 1.0 1015.6 11.4
2017-Mar-20 22:00N 49°55' W 016°35'1 0.7 1015.8 11.4
2017-Mar-20 21:00N 49°55' W 016°34'1 1.0 1015.7 11.4
2017-Mar-20 20:00N 49°56' W 016°33'5 2.5 1015.6 11.4
2017-Mar-20 18:00N 50°01' W 016°31'0 0.0 1014.8 11.4
2017-Mar-20 17:00N 50°01' W 016°31'0 0.0 1014.4 11.4
2017-Mar-20 15:00N 50°01' W 016°31'2 0.8 1013.0 11.5
2017-Mar-20 12:00N 50°03' W 016°31'2 0.8 1010.9 11.5
2017-Mar-20 09:00N 50°05' W 016°31'1 0.7 1008.6 11.5
2017-Mar-20 08:00N 50°06' W 016°31'1 0.6 1007.6 11.5
2017-Mar-20 07:00N 50°07' W 016°31'1 1.3 1007.2 11.5
2017-Mar-20 06:00N 50°08' W 016°30'1 0.6 1006.8 11.5
2017-Mar-20 05:00N 50°08' W 016°30'1 1.2 1006.2 11.5
2017-Mar-20 04:00N 50°10' W 016°30'1 1.2 1006.1 11.5
2017-Mar-20 03:00N 50°11' W 016°30'2 1.2 1006.1 11.5
2017-Mar-20 01:00N 50°13' W 016°31'1 0.6 1006.3 11.5
2017-Mar-20 00:00N 50°14' W 016°31'1 1.3 1006.0 11.5
2017-Mar-19 23:00N 50°15' W 016°31'1 0.6 1006.6 11.5
2017-Mar-19 21:00N 50°16' W 016°32'1 1.3 1006.7 11.5
2017-Mar-19 20:00N 50°17' W 016°32'2 1.0 1006.9 11.5
2017-Mar-19 18:00N 50°19' W 016°34'1 0.7 1007.2 11.5
2017-Mar-19 17:00N 50°20' W 016°34'1 1.4 1007.6 11.5
2017-Mar-19 16:00N 50°21' W 016°35'1 0.7 1007.8 11.5
2017-Mar-19 15:00N 50°22' W 016°36'1 0.7 1008.7 11.5
2017-Mar-19 14:00N 50°22' W 016°37'1 1.0 1009.3 11.5
2017-Mar-19 13:00N 50°23' W 016°38'1 0.7 1009.9 11.5
2017-Mar-19 12:00N 50°23' W 016°38'1 0.7 1010.3 11.5
2017-Mar-19 11:00N 50°24' W 016°39'1 0.7 1010.3 11.5
2017-Mar-19 10:00N 50°25' W 016°40'1 1.0 1010.0 11.5
2017-Mar-19 09:00N 50°25' W 016°41'1 0.7 1010.0 11.5
2017-Mar-19 08:00N 50°26' W 016°41'1 1.0 1010.1 11.5
2017-Mar-19 07:00N 50°26' W 016°43'1 1.0 1009.7 11.5
2017-Mar-19 06:00N 50°27' W 016°44'2 1.0 1010.0 11.5
2017-Mar-19 04:00N 50°28' W 016°47'1 0.8 1010.6 11.5
2017-Mar-19 03:00N 50°28' W 016°48'2 0.8 1011.4 11.5
2017-Mar-19 01:00N 50°28' W 016°50'1 0.8 1012.6 11.5
2017-Mar-19 00:00N 50°28' W 016°52'0 0.4 1013.1 11.5
2017-Mar-18 23:00N 50°28' W 016°52'2 0.8 1013.6 11.5
2017-Mar-18 21:00N 50°29' W 016°55'1 0.8 1014.5 11.5
2017-Mar-18 20:00N 50°29' W 016°56'1 0.8 1014.7 11.5
2017-Mar-18 19:00N 50°29' W 016°57'1 0.8 1014.8 11.5
2017-Mar-18 18:00N 50°29' W 016°58'1 1.0 1015.1 11.5
2017-Mar-18 17:00N 50°28' W 016°59'2 1.0 1015.7 11.5
2017-Mar-18 15:00N 50°28' W 017°02'1 1.0 1017.2 11.5
2017-Mar-18 14:00N 50°28' W 017°04'1 0.6 1017.8 11.5
2017-Mar-18 12:00N 50°27' W 017°05'1 0.6 1018.5 11.5
2017-Mar-18 10:00N 50°26' W 017°07'1 1.0 1018.7 11.5
2017-Mar-18 09:00N 50°26' W 017°08'1 0.6 1018.9 11.4
2017-Mar-18 07:00N 50°25' W 017°10'1 0.8 1019.5 11.4
2017-Mar-18 06:00N 50°25' W 017°11'3 0.9 1019.4 11.4
2017-Mar-18 03:00N 50°23' W 017°14'2 1.0 1020.5 11.4
2017-Mar-18 01:00N 50°22' W 017°17'1 0.7 1021.2 11.4
2017-Mar-18 00:00N 50°22' W 017°17'1 0.6 1021.2 11.4
2017-Mar-17 22:00N 50°20' W 017°18'1 0.7 1022.0 11.5
2017-Mar-17 21:00N 50°20' W 017°19'1 0.7 1022.6 11.5
2017-Mar-17 20:00N 50°19' W 017°19'1 0.6 1022.6 11.5
2017-Mar-17 18:00N 50°18' W 017°20'1 0.7 1022.8 11.5
2017-Mar-17 17:00N 50°17' W 017°20'1 0.7 1023.3 11.5
2017-Mar-17 16:00N 50°17' W 017°21'1 0.7 1023.8 11.5
2017-Mar-17 15:00N 50°16' W 017°22'2 0.7 1024.0 11.5
2017-Mar-17 12:00N 50°14' W 017°23'1 0.4 1025.5 11.5
2017-Mar-17 10:00N 50°14' W 017°23'1 1.2 1025.4 11.4
2017-Mar-17 09:00N 50°13' W 017°23'1 0.7 1025.5 11.4
2017-Mar-17 08:00N 50°12' W 017°24'1 0.6 1025.7 11.4
2017-Mar-17 07:00N 50°11' W 017°24'1 1.2 1025.9 11.4
2017-Mar-17 06:00N 50°10' W 017°24'1 0.6 1026.5 11.4
2017-Mar-17 04:00N 50°09' W 017°23'1 0.6 1027.5 11.4
2017-Mar-17 03:00N 50°08' W 017°23'1 0.6 1028.8 11.5
2017-Mar-17 01:00N 50°07' W 017°23'1 0.6 1029.9 11.4
2017-Mar-17 00:00N 50°07' W 017°23'1 0.7 1030.6 11.4
2017-Mar-16 23:00N 50°06' W 017°22'2 1.0 1030.7 11.4
2017-Mar-16 21:00N 50°04' W 017°21'2 0.7 1031.0 11.5
2017-Mar-16 18:00N 50°02' W 017°20'1 0.7 1030.4 11.5
2017-Mar-16 16:00N 50°01' W 017°19'1 0.7 1030.6 11.5
2017-Mar-16 15:00N 50°01' W 017°18'1 0.7 1030.8 11.5
2017-Mar-16 14:00N 50°00' W 017°17'0 0.4 1030.7 11.5
2017-Mar-16 13:00N 50°00' W 017°17'1 1.0 1030.9 11.5
2017-Mar-16 12:00N 49°59' W 017°16'1 0.7 1030.2 11.5
2017-Mar-16 11:00N 49°59' W 017°15'1 0.8 1029.8 11.5
2017-Mar-16 10:00N 49°59' W 017°14'1 0.7 1029.5 11.5
2017-Mar-16 09:00N 49°58' W 017°13'1 1.0 1028.6 11.5
2017-Mar-16 08:00N 49°58' W 017°12'1 1.0 1027.9 11.4
2017-Mar-16 07:00N 49°57' W 017°11'0 0.4 1026.7 11.5
2017-Mar-16 06:00N 49°57' W 017°10'1 1.0 1026.0 11.5
2017-Mar-16 05:00N 49°56' W 017°09'1 0.7 1025.0 11.5
2017-Mar-16 04:00N 49°56' W 017°08'0 0.4 1024.5 11.5
2017-Mar-16 03:00N 49°56' W 017°08'1 0.7 1024.5 11.5
2017-Mar-16 02:00N 49°55' W 017°07'0 0.4 1024.4 11.5
2017-Mar-16 01:00N 49°55' W 017°07'0 0.4 1024.6 11.5
2017-Mar-16 00:00N 49°55' W 017°06'1 0.7 1024.9 11.5
2017-Mar-15 23:00N 49°55' W 017°05'1 0.5 1024.7 11.5
2017-Mar-15 21:00N 49°54' W 017°04'1 1.0 1024.6 11.5
2017-Mar-15 20:00N 49°53' W 017°03'2 0.8 1024.2 11.5
2017-Mar-15 18:00N 49°52' W 017°01'0 0.4 1024.2 11.5
2017-Mar-15 17:00N 49°52' W 017°01'1 0.7 1024.6 11.5
2017-Mar-15 15:00N 49°52' W 016°59'1 0.6 1025.8 11.5
2017-Mar-15 14:00N 49°51' W 016°59'0 0.4 1026.6 11.5
2017-Mar-15 13:00N 49°51' W 016°58'0 0.4 1027.3 11.5
2017-Mar-15 12:00N 49°51' W 016°58'1 0.4 1027.6 11.5
2017-Mar-15 10:00N 49°50' W 016°57'0 0.4 1028.3 11.5
2017-Mar-15 09:00N 49°50' W 016°56'1 0.7 1028.9 11.5
2017-Mar-15 08:00N 49°50' W 016°56'0 0.4 1029.2 11.5
2017-Mar-15 07:00N 49°50' W 016°55'1 0.7 1029.0 11.5
2017-Mar-15 06:00N 49°49' W 016°55'1 0.7 1029.2 11.5
2017-Mar-15 04:00N 49°49' W 016°53'0 0.4 1030.4 11.5
2017-Mar-15 03:00N 49°49' W 016°52'   1031.0 11.5

Dump ship's entire track history